Time;durP1;ratioP1;P1;durP2;ratioP2;P2;SDS_P1;SDS_P2;PMS_P1;PMS_P2;Temp;Humidity;BMP_temperature;BMP_pressure;BME280_temperature;BME280_humidity;BME280_pressure;Samples;Min_cycle;Max_cycle;Signal;HPM_P1;HPM_P2
2022/01/10 00:02:00;;;;;;;28.48;4.28;;;25.00;86.20;;;;;;5082649;28;20067;-75
2022/01/10 00:04:28;;;;;;;27.15;4.65;;;25.00;86.20;;;;;;5089181;28;20032;-74
2022/01/10 00:06:55;;;;;;;24.92;4.55;;;25.10;86.40;;;;;;5091388;28;20032;-73
2022/01/10 00:09:22;;;;;;;17.05;3.63;;;25.10;86.40;;;;;;5091263;28;20032;-73
2022/01/10 00:11:49;;;;;;;20.02;3.88;;;25.00;86.20;;;;;;5085222;28;20474;-73
2022/01/10 00:14:16;;;;;;;18.58;4.80;;;25.10;86.00;;;;;;5077783;28;20124;-74
2022/01/10 00:16:43;;;;;;;15.27;3.63;;;25.10;86.00;;;;;;5069760;28;20052;-77
2022/01/10 00:19:11;;;;;;;35.45;5.57;;;25.10;85.80;;;;;;5071103;28;20032;-73
2022/01/10 00:21:38;;;;;;;39.92;4.60;;;25.00;85.10;;;;;;5084900;28;20438;-75
2022/01/10 00:24:05;;;;;;;22.95;3.75;;;25.10;85.40;;;;;;5085940;28;20083;-75
2022/01/10 00:26:32;;;;;;;24.92;3.75;;;25.00;85.30;;;;;;5074872;28;20494;-76
2022/01/10 00:28:59;;;;;;;26.52;3.92;;;25.00;85.30;;;;;;5069096;28;20557;-77
2022/01/10 00:31:27;;;;;;;23.50;4.35;;;25.00;85.30;;;;;;5076956;28;20028;-75
2022/01/10 00:33:54;;;;;;;30.33;4.47;;;25.00;85.20;;;;;;5080378;28;20043;-75
2022/01/10 00:36:21;;;;;;;27.50;4.45;;;24.90;85.20;;;;;;5084858;28;20029;-75
2022/01/10 00:38:48;;;;;;;24.30;3.90;;;24.90;85.20;;;;;;5056345;28;20076;-75
2022/01/10 00:41:15;;;;;;;22.05;4.13;;;24.90;85.10;;;;;;5090098;28;20031;-75
2022/01/10 00:43:46;;;;;;;28.35;4.20;;;24.90;85.10;;;;;;5078152;28;20039;-75
2022/01/10 00:46:13;;;;;;;20.17;3.55;;;24.80;85.30;;;;;;5077476;28;20072;-75
2022/01/10 00:48:40;;;;;;;20.45;3.45;;;24.80;85.10;;;;;;5087589;28;20028;-76
2022/01/10 00:51:08;;;;;;;16.73;3.53;;;24.80;85.20;;;;;;5090445;28;20039;-75
2022/01/10 00:53:35;;;;;;;31.20;5.00;;;24.80;85.40;;;;;;5061882;28;20060;-75
2022/01/10 00:56:02;;;;;;;21.65;3.50;;;24.80;85.50;;;;;;5082279;28;20066;-75
2022/01/10 00:58:30;;;;;;;16.38;3.90;;;24.80;85.30;;;;;;5057812;28;20390;-75
2022/01/10 01:01:00;;;;;;;21.40;4.50;;;24.90;85.60;;;;;;5071042;28;20106;-73
2022/01/10 01:03:27;;;;;;;40.28;5.88;;;25.00;85.50;;;;;;5090046;28;20039;-73
2022/01/10 01:05:54;;;;;;;24.45;4.30;;;25.00;85.50;;;;;;5090575;28;20401;-73
2022/01/10 01:08:21;;;;;;;19.48;3.92;;;25.10;85.40;;;;;;5090279;28;20565;-73
2022/01/10 01:24:02;;;;;;;28.75;4.03;;;25.50;84.10;;;;;;5084025;28;19923;-73
2022/01/10 01:26:29;;;;;;;;;;;25.50;83.50;;;;;;5075389;28;20483;-73
2022/01/10 01:28:56;;;;;;;21.48;4.00;;;25.50;84.00;;;;;;5086717;28;19904;-73
2022/01/10 01:31:23;;;;;;;19.52;4.30;;;25.50;84.00;;;;;;5042012;28;20040;-73
2022/01/10 01:33:50;;;;;;;16.95;5.25;;;25.50;83.80;;;;;;5080195;28;20024;-73
2022/01/10 01:36:22;;;;;;;11.77;2.78;;;25.50;84.00;;;;;;5080386;28;20385;-73
2022/01/10 01:38:49;;;;;;;19.55;4.13;;;25.40;83.30;;;;;;5088655;28;20047;-72
2022/01/10 01:43:59;;;;;;;30.35;5.53;;;25.40;83.40;;;;;;5079317;28;20033;-72
2022/01/10 01:46:26;;;;;;;19.88;4.50;;;25.50;83.90;;;;;;5084389;28;20029;-73
2022/01/10 01:48:54;;;;;;;21.05;4.18;;;25.50;83.70;;;;;;5073230;28;20051;-72
2022/01/10 01:51:21;;;;;;;18.23;4.03;;;25.60;84.50;;;;;;5084350;28;20111;-71
2022/01/10 01:53:48;;;;;;;24.10;5.88;;;25.70;84.10;;;;;;5068876;28;20044;-72
2022/01/10 01:56:17;;;;;;;19.70;4.00;;;25.70;84.50;;;;;;5079801;28;20039;-73
2022/01/10 01:58:44;;;;;;;19.45;3.20;;;25.70;84.10;;;;;;5087864;28;20116;-71
2022/01/10 02:01:18;;;;;;;17.23;3.95;;;25.70;83.10;;;;;;5086978;28;20047;-70
2022/01/10 02:03:46;;;;;;;24.20;4.05;;;25.50;83.00;;;;;;5083648;28;20506;-71
2022/01/10 02:06:13;;;;;;;20.42;3.45;;;25.50;83.60;;;;;;5069780;28;20082;-71
2022/01/10 02:08:40;;;;;;;23.08;3.95;;;25.40;83.90;;;;;;5078288;28;20097;-71
2022/01/10 02:11:08;;;;;;;11.57;3.30;;;25.30;83.70;;;;;;5080661;28;20028;-72
2022/01/10 02:13:35;;;;;;;20.30;3.33;;;25.30;84.10;;;;;;5072199;28;20040;-72
2022/01/10 02:16:04;;;;;;;21.52;3.50;;;25.30;84.20;;;;;;5092849;28;20074;-68
2022/01/10 02:18:33;;;;;;;21.58;3.80;;;25.30;84.40;;;;;;5073731;28;20028;-72
2022/01/10 02:21:02;;;;;;;43.55;5.20;;;25.30;84.30;;;;;;5088612;28;20040;-71
2022/01/10 02:23:29;;;;;;;28.17;3.97;;;25.30;85.20;;;;;;5077002;28;20054;-71
2022/01/10 02:25:57;;;;;;;34.42;4.70;;;25.40;84.30;;;;;;5045740;28;20038;-71
2022/01/10 02:28:24;;;;;;;39.80;4.78;;;25.50;84.20;;;;;;5055569;28;20044;-71
2022/01/10 02:30:56;;;;;;;16.30;3.63;;;25.70;84.30;;;;;;5054100;28;20036;-71
2022/01/10 02:33:24;;;;;;;47.45;5.93;;;25.80;84.50;;;;;;5071566;28;20033;-71
2022/01/10 02:36:20;;;;;;;72.85;6.32;;;25.90;84.00;;;;;;5065231;28;20091;-71
2022/01/10 02:38:47;;;;;;;32.08;5.43;;;26.00;84.10;;;;;;5068211;28;20076;-69
2022/01/10 02:41:23;;;;;;;22.60;3.85;;;26.00;83.40;;;;;;5046103;28;20033;-71
2022/01/10 02:43:51;;;;;;;16.17;3.63;;;26.00;83.00;;;;;;5072453;28;20032;-71
2022/01/10 02:46:18;;;;;;;14.10;4.40;;;26.00;82.50;;;;;;5071958;28;20430;-71
2022/01/10 02:48:45;;;;;;;20.33;4.15;;;26.00;82.20;;;;;;5043283;28;20064;-71
2022/01/10 02:51:12;;;;;;;21.20;3.95;;;26.10;81.70;;;;;;5070384;28;20066;-72
2022/01/10 02:53:39;;;;;;;40.17;5.68;;;26.10;82.20;;;;;;5067745;28;20043;-77
2022/01/10 02:56:07;;;;;;;19.80;4.38;;;26.20;82.30;;;;;;5062796;28;20072;-74
2022/01/10 02:58:34;;;;;;;21.80;3.67;;;26.30;81.90;;;;;;5045600;28;20457;-74
2022/01/10 03:01:01;;;;;;;38.65;4.15;;;26.40;81.40;;;;;;5039964;28;20041;-74
2022/01/10 03:03:31;;;;;;;18.13;3.40;;;26.30;81.10;;;;;;5074043;28;20039;-72
2022/01/10 03:05:59;;;;;;;16.20;3.30;;;26.30;80.90;;;;;;5041316;28;20397;-71
2022/01/10 03:08:27;;;;;;;18.30;4.03;;;26.30;79.90;;;;;;5070128;28;20067;-71
2022/01/10 03:10:54;;;;;;;19.55;3.28;;;26.30;80.70;;;;;;5070408;28;20108;-74
2022/01/10 03:13:22;;;;;;;19.92;4.22;;;26.30;80.20;;;;;;5044304;28;20041;-71
2022/01/10 03:15:49;;;;;;;22.73;3.53;;;26.20;80.80;;;;;;5068378;28;20386;-71
2022/01/10 03:18:16;;;;;;;17.20;3.88;;;26.20;80.00;;;;;;5071493;28;20036;-73
2022/01/10 03:20:43;;;;;;;20.25;3.17;;;26.30;80.00;;;;;;5071964;28;20036;-73
2022/01/10 04:25:08;;;;;;;18.85;4.15;;;26.20;80.50;;;;;;5074577;28;20063;-83
2022/01/10 04:27:36;;;;;;;22.30;3.42;;;26.10;80.10;;;;;;5045168;28;20132;-75
2022/01/10 04:30:03;;;;;;;17.25;3.80;;;26.10;79.80;;;;;;5046511;28;20044;-75
2022/01/10 04:32:33;;;;;;;14.25;3.25;;;26.20;79.60;;;;;;5064979;28;20037;-71
2022/01/10 04:35:02;;;;;;;21.05;3.38;;;26.20;80.10;;;;;;5063416;28;20072;-73
2022/01/10 04:37:29;;;;;;;32.42;7.97;;;26.20;79.20;;;;;;5067012;28;20167;-71
2022/01/10 04:39:56;;;;;;;17.35;3.58;;;26.30;80.60;;;;;;5050181;28;20119;-71
2022/01/10 04:42:24;;;;;;;16.90;2.97;;;26.30;79.90;;;;;;5047168;28;20032;-71
2022/01/10 04:44:51;;;;;;;26.92;4.35;;;26.30;79.40;;;;;;5049427;28;20044;-70
2022/01/10 04:47:20;;;;;;;21.63;3.63;;;26.30;80.10;;;;;;5050429;28;20411;-72
2022/01/10 04:52:34;;;;;;;15.80;3.20;;;26.40;79.30;;;;;;5016184;28;20517;-72
2022/01/10 04:55:04;;;;;;;17.48;3.47;;;26.40;78.80;;;;;;5050731;28;20037;-72
2022/01/10 04:57:34;;;;;;;19.85;3.45;;;26.40;79.40;;;;;;5065409;28;20046;-72
2022/01/10 05:00:02;;;;;;;20.65;4.07;;;26.50;79.30;;;;;;5067044;28;20120;-72
2022/01/10 05:02:29;;;;;;;19.50;4.75;;;26.50;79.00;;;;;;5048755;28;20044;-72
2022/01/10 05:04:56;;;;;;;17.83;4.07;;;26.50;79.30;;;;;;5048509;28;20020;-71
2022/01/10 05:07:23;;;;;;;19.70;4.13;;;26.50;79.50;;;;;;5066740;28;20028;-72
2022/01/10 05:09:50;;;;;;;17.73;3.60;;;26.50;79.40;;;;;;5068769;28;20067;-72
2022/01/10 05:12:18;;;;;;;18.42;3.60;;;26.50;79.10;;;;;;5068532;28;20431;-72
2022/01/10 05:14:50;;;;;;;13.98;3.25;;;26.50;79.40;;;;;;5068644;28;20068;-72
2022/01/10 05:17:22;;;;;;;16.15;3.25;;;26.50;79.10;;;;;;5050294;28;20043;-68
2022/01/10 05:19:51;;;;;;;28.42;5.53;;;26.50;79.40;;;;;;5062378;28;20466;-71
2022/01/10 05:22:19;;;;;;;22.27;4.13;;;26.50;79.60;;;;;;5044179;28;20083;-73
2022/01/10 05:24:46;;;;;;;18.73;4.10;;;26.50;79.10;;;;;;5063124;28;20426;-74
2022/01/10 07:05:57;;;;;;;12.90;3.22;;;25.80;80.80;;;;;;5074048;28;20554;-74
2022/01/10 07:08:24;;;;;;;19.73;4.50;;;25.80;80.90;;;;;;5051059;28;20055;-72
2022/01/10 07:10:51;;;;;;;15.95;3.63;;;25.80;80.90;;;;;;5071178;28;20114;-72
2022/01/10 07:13:19;;;;;;;20.75;4.43;;;25.80;80.60;;;;;;5071374;28;20024;-72
2022/01/10 07:15:46;;;;;;;19.80;3.47;;;25.80;80.90;;;;;;5051475;28;20128;-72
2022/01/10 07:18:13;;;;;;;14.00;3.67;;;25.80;81.20;;;;;;5066992;28;20021;-72
2022/01/10 07:20:40;;;;;;;20.73;3.30;;;25.70;81.00;;;;;;5057909;28;20526;-72
2022/01/10 07:23:07;;;;;;;13.70;3.03;;;25.70;80.90;;;;;;5070992;28;20036;-72
2022/01/10 07:25:35;;;;;;;16.40;3.80;;;25.70;81.00;;;;;;5070592;28;20036;-71
2022/01/10 07:28:02;;;;;;;22.85;5.53;;;25.70;81.40;;;;;;5069928;28;20448;-75
2022/01/10 07:30:29;;;;;;;18.27;4.65;;;25.70;81.60;;;;;;5066783;28;20398;-71
2022/01/10 07:32:56;;;;;;;18.15;3.97;;;25.70;81.40;;;;;;5060039;28;20479;-71
2022/01/10 07:35:24;;;;;;;17.67;3.42;;;25.70;81.10;;;;;;5066078;28;20112;-71
2022/01/10 07:37:51;;;;;;;11.35;3.40;;;25.70;81.30;;;;;;5055930;28;20052;-71
2022/01/10 07:40:18;;;;;;;18.42;3.97;;;25.60;81.30;;;;;;5053009;28;20066;-72
2022/01/10 07:42:45;;;;;;;19.35;4.18;;;25.60;81.50;;;;;;5070554;28;20449;-72
2022/01/10 07:45:12;;;;;;;15.82;3.33;;;25.60;81.50;;;;;;5070916;28;20097;-68
2022/01/10 07:47:40;;;;;;;14.80;3.33;;;25.60;81.50;;;;;;5049788;28;20072;-68
2022/01/10 07:50:07;;;;;;;20.38;4.85;;;25.50;81.30;;;;;;5042794;28;20024;-68
2022/01/10 07:52:35;;;;;;;15.48;3.42;;;25.50;81.60;;;;;;5054511;28;20045;-68
2022/01/10 07:55:02;;;;;;;17.95;3.95;;;25.50;81.10;;;;;;5071581;28;20043;-67
2022/01/10 07:57:30;;;;;;;17.13;3.75;;;25.50;81.20;;;;;;5060886;28;20028;-69
2022/01/10 07:59:57;;;;;;;16.48;3.78;;;25.50;81.50;;;;;;5059050;28;20044;-68
2022/01/10 08:02:26;;;;;;;13.93;3.65;;;25.50;81.40;;;;;;5071640;28;20036;-68
2022/01/10 08:04:53;;;;;;;16.52;3.95;;;25.50;81.30;;;;;;5077064;28;20086;-69
2022/01/10 11:04:10;;;;;;;17.25;4.28;;;24.80;85.00;;;;;;5059355;28;20115;-72
2022/01/10 11:06:38;;;;;;;22.00;4.28;;;24.80;85.10;;;;;;5089040;28;20119;-72
2022/01/10 11:09:09;;;;;;;18.25;3.85;;;24.80;85.10;;;;;;5092921;28;20060;-72
2022/01/10 11:11:36;;;;;;;22.65;4.32;;;24.70;85.30;;;;;;5091772;28;20062;-73
2022/01/10 11:14:03;;;;;;;21.20;4.32;;;24.80;85.30;;;;;;5074211;28;20059;-73
2022/01/10 11:16:31;;;;;;;14.35;3.28;;;24.80;85.30;;;;;;5055813;28;20454;-72
2022/01/10 11:18:59;;;;;;;15.45;4.10;;;24.80;85.30;;;;;;5092705;28;20381;-72
2022/01/10 11:21:26;;;;;;;21.10;3.83;;;24.70;85.30;;;;;;5092738;28;20513;-73
2022/01/10 11:23:53;;;;;;;24.40;3.92;;;24.70;85.40;;;;;;5074919;28;20090;-73
2022/01/10 11:26:21;;;;;;;22.48;4.03;;;24.70;85.60;;;;;;5092305;28;20064;-72
2022/01/10 11:28:55;;;;;;;18.13;3.17;;;24.70;85.30;;;;;;5091339;28;20028;-72
2022/01/10 11:31:28;;;;;;;19.42;3.58;;;24.70;85.50;;;;;;5074015;28;20079;-72
2022/01/10 11:33:57;;;;;;;17.20;3.78;;;24.60;85.40;;;;;;5057807;28;20107;-72
2022/01/10 11:36:25;;;;;;;21.45;3.50;;;24.60;85.60;;;;;;5074959;28;20130;-72
2022/01/10 11:38:56;;;;;;;15.80;3.20;;;24.60;85.50;;;;;;5089137;28;20072;-71
2022/01/10 11:41:24;;;;;;;19.40;4.13;;;24.60;85.50;;;;;;5091218;28;20047;-72
2022/01/10 11:44:13;;;;;;;21.38;4.75;;;24.60;85.60;;;;;;5092377;28;20025;-72
2022/01/10 11:46:41;;;;;;;18.02;4.50;;;24.60;85.50;;;;;;5089279;28;20047;-72
2022/01/10 11:49:17;;;;;;;24.98;4.35;;;24.50;85.70;;;;;;5090832;28;20039;-72
2022/01/10 11:51:52;;;;;;;12.65;3.42;;;24.60;85.70;;;;;;5089734;28;20102;-72
2022/01/10 11:54:45;;;;;;;20.33;5.35;;;24.60;85.80;;;;;;5086172;28;20387;-73
2022/01/10 11:57:15;;;;;;;17.95;3.95;;;24.60;85.70;;;;;;5083075;28;20036;-73
2022/01/10 11:59:45;;;;;;;21.92;4.50;;;24.50;85.80;;;;;;5073650;28;20031;-72
2022/01/10 12:02:20;;;;;;;20.23;4.28;;;24.50;85.60;;;;;;5085754;28;20032;-72
2022/01/10 15:07:33;;;;;;;22.45;3.83;;;24.30;86.90;;;;;;5062737;28;20052;-73
2022/01/10 15:10:00;;;;;;;21.48;4.35;;;24.30;86.80;;;;;;5057933;28;20052;-75
2022/01/10 15:12:27;;;;;;;19.58;4.03;;;24.20;86.90;;;;;;5051440;28;20036;-74
2022/01/10 15:15:00;;;;;;;21.58;4.32;;;24.20;86.90;;;;;;5068924;28;20079;-75
2022/01/10 15:17:29;;;;;;;22.33;4.30;;;24.20;87.10;;;;;;5067722;28;20361;-75
2022/01/10 15:19:56;;;;;;;17.90;3.63;;;24.20;86.90;;;;;;5068832;28;20491;-75
2022/01/10 15:22:23;;;;;;;22.27;4.28;;;24.20;86.80;;;;;;5070410;28;20041;-75
2022/01/10 15:24:51;;;;;;;16.70;3.45;;;24.20;86.80;;;;;;5072110;28;20391;-73
2022/01/10 15:27:18;;;;;;;18.85;3.60;;;24.20;86.80;;;;;;5071874;28;20572;-74
2022/01/10 15:29:46;;;;;;;16.10;3.70;;;24.20;86.90;;;;;;5054614;28;20060;-73
2022/01/10 15:32:13;;;;;;;16.63;4.00;;;24.20;86.80;;;;;;5072131;28;20114;-73
2022/01/10 15:34:40;;;;;;;17.58;3.65;;;24.20;86.70;;;;;;5072446;28;20155;-73
2022/01/10 15:37:07;;;;;;;18.58;4.30;;;24.20;86.90;;;;;;5065804;28;20041;-73
2022/01/10 15:39:35;;;;;;;18.48;3.72;;;24.20;86.90;;;;;;5035313;28;20037;-74
2022/01/10 15:42:03;;;;;;;19.35;3.95;;;24.20;86.80;;;;;;5072484;28;20037;-72
2022/01/10 15:44:30;;;;;;;17.20;4.07;;;24.20;86.80;;;;;;5054924;28;20032;-72
2022/01/10 15:47:01;;;;;;;23.15;4.60;;;24.20;86.80;;;;;;5070669;28;20040;-72
2022/01/10 15:49:29;;;;;;;25.40;4.43;;;24.20;86.90;;;;;;5052996;28;20080;-72
2022/01/10 15:51:56;;;;;;;18.45;3.80;;;24.20;86.80;;;;;;5071531;28;20039;-71
2022/01/10 15:54:23;;;;;;;16.50;3.80;;;24.20;86.80;;;;;;5052838;28;20071;-73
2022/01/10 15:56:50;;;;;;;16.15;3.67;;;24.20;86.70;;;;;;5052385;28;20053;-72
2022/01/10 15:59:17;;;;;;;18.52;3.70;;;24.20;86.70;;;;;;5036454;28;20095;-73
2022/01/10 16:01:45;;;;;;;20.63;3.92;;;24.20;86.70;;;;;;5035610;28;20040;-72
2022/01/10 16:04:12;;;;;;;14.63;3.78;;;24.20;86.70;;;;;;5071682;28;20496;-72
2022/01/10 16:06:40;;;;;;;15.85;4.40;;;24.20;86.70;;;;;;5072457;28;20036;-72
2022/01/10 16:09:07;;;;;;;17.42;3.70;;;24.20;86.70;;;;;;5055790;28;20037;-72
2022/01/10 16:11:37;;;;;;;21.30;4.10;;;24.20;86.70;;;;;;5052475;28;20029;-72
2022/01/10 16:14:04;;;;;;;;;;;24.20;86.70;;;;;;5046358;28;20060;-71
2022/01/10 16:16:31;;;;;;;22.40;3.58;;;24.20;86.70;;;;;;5067030;28;20546;-73
2022/01/10 16:18:58;;;;;;;14.82;3.63;;;24.20;86.80;;;;;;5043733;28;20032;-72
2022/01/10 16:21:26;;;;;;;19.05;4.47;;;24.20;86.80;;;;;;5069377;28;20542;-72
2022/01/10 16:23:53;;;;;;;19.40;3.60;;;24.20;86.90;;;;;;5071336;28;20059;-72
2022/01/10 16:26:20;;;;;;;18.35;4.25;;;24.20;87.00;;;;;;5054059;28;20040;-72
2022/01/10 16:28:47;;;;;;;16.95;4.32;;;24.20;86.80;;;;;;5064027;28;20052;-73
2022/01/10 16:31:14;;;;;;;17.45;4.53;;;24.20;86.90;;;;;;5071683;28;20445;-72
2022/01/10 16:33:42;;;;;;;16.13;3.85;;;24.20;86.90;;;;;;5071994;28;20446;-73
2022/01/10 16:36:13;;;;;;;16.27;3.30;;;24.20;87.10;;;;;;5052136;28;20093;-72
2022/01/10 16:38:40;;;;;;;14.90;3.58;;;24.20;87.10;;;;;;5063552;28;20530;-72
2022/01/10 16:41:14;;;;;;;16.95;3.30;;;24.10;87.10;;;;;;5051070;28;20395;-71
2022/01/10 16:43:41;;;;;;;17.05;3.47;;;24.10;87.10;;;;;;5046032;28;20033;-73
2022/01/10 16:46:10;;;;;;;19.42;3.45;;;24.10;87.10;;;;;;5060468;28;20029;-73
2022/01/10 16:48:38;;;;;;;15.90;3.40;;;24.10;87.30;;;;;;5041769;28;20083;-73
2022/01/10 16:51:09;;;;;;;16.02;3.50;;;24.10;87.30;;;;;;5029832;28;20691;-73
2022/01/10 16:53:36;;;;;;;18.73;3.33;;;24.10;87.10;;;;;;5070340;28;20097;-72
2022/01/10 16:56:04;;;;;;;19.98;3.25;;;24.10;87.20;;;;;;5070964;28;20356;-72
2022/01/10 16:58:31;;;;;;;14.73;3.05;;;24.10;87.20;;;;;;5064861;28;20052;-73
2022/01/10 17:01:00;;;;;;;23.02;3.80;;;24.10;87.30;;;;;;5062848;28;20032;-73
2022/01/10 17:03:27;;;;;;;20.38;4.47;;;24.10;87.30;;;;;;5050639;28;20099;-72
2022/01/10 17:05:55;;;;;;;22.63;5.20;;;24.00;87.30;;;;;;5055736;28;20268;-73
2022/01/10 17:08:22;;;;;;;15.65;3.63;;;24.00;87.50;;;;;;5051439;28;20522;-73
2022/01/10 17:10:50;;;;;;;15.95;4.15;;;24.00;87.60;;;;;;5064971;28;20369;-74
2022/01/10 17:13:17;;;;;;;18.73;3.55;;;24.00;87.50;;;;;;5053055;28;20028;-74
2022/01/10 17:15:45;;;;;;;19.73;3.72;;;24.00;87.60;;;;;;5051008;28;20049;-73
2022/01/10 17:18:12;;;;;;;20.13;3.70;;;24.00;87.60;;;;;;5055568;28;20047;-74
2022/01/10 17:20:39;;;;;;;16.20;3.90;;;24.00;87.60;;;;;;5065052;28;20468;-74
2022/01/10 17:23:06;;;;;;;16.98;3.53;;;24.00;87.60;;;;;;5032672;28;20041;-74
2022/01/10 17:25:34;;;;;;;12.95;3.28;;;24.00;87.50;;;;;;5050206;28;20041;-74
2022/01/10 17:28:01;;;;;;;20.13;4.20;;;24.00;87.70;;;;;;5068747;28;20032;-74
2022/01/10 17:30:28;;;;;;;15.45;3.50;;;24.00;87.60;;;;;;5067973;28;20029;-73
2022/01/10 17:32:57;;;;;;;16.95;4.00;;;24.00;87.70;;;;;;5039499;28;20320;-73
2022/01/10 17:35:25;;;;;;;20.63;4.53;;;24.00;87.70;;;;;;5032108;28;20398;-74
2022/01/10 17:37:52;;;;;;;20.15;3.53;;;24.00;87.80;;;;;;5052729;28;20037;-73
2022/01/10 17:40:19;;;;;;;14.70;3.75;;;24.00;87.80;;;;;;5050855;28;20037;-72
2022/01/10 17:42:47;;;;;;;19.85;3.92;;;24.00;87.90;;;;;;5062629;28;20390;-73
2022/01/10 17:45:16;;;;;;;16.67;4.25;;;24.00;87.80;;;;;;5052594;28;20028;-73
2022/01/10 17:47:44;;;;;;;16.70;3.28;;;24.00;87.90;;;;;;5050583;28;20033;-73
2022/01/10 17:50:12;;;;;;;20.83;3.92;;;24.00;87.90;;;;;;5070002;28;20052;-75
2022/01/10 17:52:49;;;;;;;24.08;8.10;;;24.00;87.90;;;;;;5050209;28;20041;-74
2022/01/10 17:55:17;;;;;;;21.02;5.65;;;24.00;87.90;;;;;;5049709;28;20407;-73
2022/01/10 17:57:44;;;;;;;23.00;5.60;;;24.00;88.00;;;;;;5050463;28;20037;-73
2022/01/10 18:00:16;;;;;;;17.20;4.30;;;24.00;88.00;;;;;;5048468;28;20041;-73
2022/01/10 18:02:43;;;;;;;16.38;3.85;;;24.00;88.00;;;;;;5037541;28;20052;-73
2022/01/10 18:05:12;;;;;;;21.67;4.20;;;24.00;88.00;;;;;;5056320;28;20029;-73
2022/01/10 18:07:42;;;;;;;17.65;4.65;;;24.00;88.00;;;;;;5062785;28;20490;-74
2022/01/10 18:10:10;;;;;;;20.13;3.85;;;24.00;88.10;;;;;;5076356;28;20057;-73
2022/01/10 18:12:38;;;;;;;18.55;3.88;;;24.00;88.10;;;;;;5069485;28;20086;-73
2022/01/10 18:15:08;;;;;;;16.95;3.80;;;24.00;88.10;;;;;;5090085;28;20032;-73
2022/01/10 18:17:36;;;;;;;29.67;4.07;;;24.00;88.10;;;;;;5090492;28;20393;-73
2022/01/10 18:20:05;;;;;;;27.45;4.97;;;24.00;88.20;;;;;;5075786;28;20036;-73
2022/01/10 18:22:35;;;;;;;19.63;3.97;;;24.00;88.20;;;;;;5074083;28;20044;-74
2022/01/10 18:25:04;;;;;;;16.63;3.40;;;23.90;88.30;;;;;;5089988;28;20113;-73
2022/01/10 18:27:34;;;;;;;20.40;3.70;;;23.90;88.20;;;;;;5082680;28;20548;-74
2022/01/10 18:30:01;;;;;;;24.13;4.25;;;24.00;88.30;;;;;;5069820;28;20467;-73
2022/01/10 18:32:28;;;;;;;17.00;3.60;;;23.90;88.40;;;;;;5046310;28;20036;-73
2022/01/10 18:34:55;;;;;;;39.80;4.70;;;23.90;88.30;;;;;;5081319;28;20107;-73
2022/01/10 18:37:23;;;;;;;37.63;4.75;;;24.00;88.40;;;;;;5070445;28;20080;-74
2022/01/10 18:39:50;;;;;;;18.48;4.38;;;24.00;88.40;;;;;;5069585;28;20028;-74
2022/01/10 18:42:17;;;;;;;19.33;4.05;;;24.00;88.50;;;;;;5069671;28;20482;-74
2022/01/10 18:44:44;;;;;;;14.90;3.53;;;24.00;88.40;;;;;;5086048;28;20036;-73
2022/01/10 19:58:30;;;;;;;14.95;3.47;;;24.10;88.80;;;;;;5065454;28;20122;-68
2022/01/10 20:00:59;;;;;;;25.20;4.30;;;24.10;88.90;;;;;;5067736;28;20542;-69
2022/01/10 20:03:27;;;;;;;17.98;3.88;;;24.10;88.80;;;;;;5068509;28;20032;-69
2022/01/10 20:05:54;;;;;;;17.10;3.75;;;24.10;88.80;;;;;;5051550;28;20032;-68
2022/01/10 20:08:21;;;;;;;20.25;3.45;;;24.10;88.80;;;;;;5069605;28;20071;-69
2022/01/10 20:10:50;;;;;;;20.02;4.70;;;24.10;88.80;;;;;;5063735;28;20028;-67
2022/01/10 20:13:19;;;;;;;20.73;4.70;;;24.10;88.80;;;;;;5070732;28;20036;-68
2022/01/10 20:15:47;;;;;;;20.38;5.28;;;24.10;88.90;;;;;;5057327;28;20052;-69
2022/01/10 20:18:14;;;;;;;27.10;7.07;;;24.10;88.80;;;;;;5070115;28;20115;-68
2022/01/10 20:20:41;;;;;;;20.48;4.85;;;24.20;88.90;;;;;;5070177;28;20028;-68
2022/01/10 20:23:09;;;;;;;17.20;4.07;;;24.20;88.80;;;;;;5071771;28;20036;-67
2022/01/10 20:25:36;;;;;;;22.80;4.85;;;24.20;88.80;;;;;;5048834;28;20060;-66
2022/01/10 20:28:05;;;;;;;16.75;4.45;;;24.20;88.80;;;;;;5064397;28;20048;-67
2022/01/10 20:30:32;;;;;;;19.83;4.47;;;24.20;88.80;;;;;;5062422;28;20044;-68
2022/01/10 20:32:59;;;;;;;19.85;4.00;;;24.20;88.80;;;;;;5046353;28;20036;-68
2022/01/10 20:35:27;;;;;;;24.55;4.72;;;24.20;88.70;;;;;;5070239;28;20047;-68
2022/01/10 20:37:54;;;;;;;20.67;3.88;;;24.20;88.80;;;;;;5070512;28;20086;-69
2022/01/10 20:40:22;;;;;;;17.85;4.35;;;24.30;88.70;;;;;;5070476;28;20064;-68
2022/01/10 20:42:49;;;;;;;24.88;3.90;;;24.30;88.70;;;;;;5069504;28;20032;-68
2022/01/10 20:45:17;;;;;;;14.43;3.25;;;24.30;88.60;;;;;;5068599;28;20111;-68
2022/01/10 20:47:44;;;;;;;22.80;4.30;;;24.30;88.60;;;;;;5048529;28;20574;-68
2022/01/10 20:50:11;;;;;;;16.02;3.65;;;24.30;88.60;;;;;;5066470;28;20083;-68
2022/01/10 20:52:39;;;;;;;23.13;4.07;;;24.30;88.60;;;;;;5070197;28;20033;-69
2022/01/10 20:55:06;;;;;;;21.73;4.00;;;24.30;88.70;;;;;;5034810;28;20041;-68
2022/01/10 21:00:20;;;;;;;14.02;3.60;;;24.40;88.50;;;;;;5065369;28;20630;-68
2022/01/10 21:02:48;;;;;;;16.38;3.13;;;24.40;88.50;;;;;;5036356;28;20033;-68
2022/01/10 21:05:15;;;;;;;22.05;3.72;;;24.50;88.60;;;;;;5070123;28;20071;-68
2022/01/10 21:07:46;;;;;;;27.08;4.55;;;24.60;88.40;;;;;;5065101;28;20120;-68
2022/01/10 21:10:15;;;;;;;18.13;3.63;;;24.70;88.20;;;;;;5069330;28;20060;-71
2022/01/10 21:12:42;;;;;;;27.37;3.80;;;24.80;88.20;;;;;;5070048;28;20119;-71
2022/01/10 21:15:10;;;;;;;16.90;3.63;;;24.80;86.80;;;;;;5069918;28;20281;-71
2022/01/10 21:17:37;;;;;;;16.30;3.70;;;24.90;87.60;;;;;;5067273;28;20567;-71
2022/01/10 21:20:05;;;;;;;25.65;4.35;;;25.00;87.50;;;;;;5050774;28;20033;-71
2022/01/10 21:22:39;;;;;;;25.48;4.75;;;25.10;87.30;;;;;;5070294;28;20033;-71
2022/01/10 21:25:11;;;;;;;25.00;4.65;;;25.20;87.30;;;;;;5070135;28;20024;-71
2022/01/10 21:27:40;;;;;;;24.08;5.93;;;25.20;86.80;;;;;;5070187;28;20390;-71
2022/01/10 21:30:07;;;;;;;23.58;4.50;;;25.10;86.80;;;;;;5070055;28;20040;-70
2022/01/10 21:32:35;;;;;;;18.23;4.57;;;25.20;86.60;;;;;;5069888;28;20044;-71
2022/01/10 21:35:03;;;;;;;19.27;3.88;;;25.20;86.50;;;;;;5069703;28;20410;-69
2022/01/10 21:37:30;;;;;;;15.73;4.13;;;25.10;86.40;;;;;;5068322;28;20032;-71
2022/01/10 21:39:57;;;;;;;19.00;3.92;;;25.10;86.20;;;;;;5052886;28;20107;-70
2022/01/10 21:42:24;;;;;;;18.20;3.15;;;25.10;86.00;;;;;;5081842;28;20101;-69
2022/01/10 21:44:51;;;;;;;15.80;3.00;;;25.00;86.00;;;;;;5080165;28;20072;-71
2022/01/10 21:47:18;;;;;;;53.38;7.65;;;25.00;86.00;;;;;;5070604;28;20108;-70
2022/01/10 21:49:45;;;;;;;30.70;6.30;;;25.00;86.00;;;;;;5062167;28;20036;-68
2022/01/10 21:52:13;;;;;;;19.42;6.40;;;25.00;86.10;;;;;;5073040;28;20028;-68
2022/01/10 21:54:40;;;;;;;19.50;4.20;;;25.10;86.20;;;;;;5072558;28;20017;-67
2022/01/10 21:57:07;;;;;;;15.55;3.85;;;25.10;85.80;;;;;;5067232;28;20083;-67
2022/01/10 21:59:34;;;;;;;23.83;4.43;;;25.10;85.70;;;;;;5069978;28;20044;-67
2022/01/10 22:02:02;;;;;;;23.52;4.25;;;25.20;85.60;;;;;;5076041;28;20028;-67
2022/01/10 22:04:29;;;;;;;19.73;4.50;;;25.30;85.70;;;;;;5056542;28;20474;-67
2022/01/10 22:06:56;;;;;;;28.83;5.32;;;25.30;85.30;;;;;;5054833;28;20449;-67
2022/01/10 22:09:24;;;;;;;17.65;3.42;;;25.30;85.30;;;;;;5074245;28;20035;-69
2022/01/10 22:11:51;;;;;;;30.48;5.22;;;25.40;84.80;;;;;;5056657;28;20032;-71
2022/01/10 22:14:19;;;;;;;16.40;3.80;;;25.30;84.80;;;;;;5053025;28;20510;-71
2022/01/10 22:16:46;;;;;;;19.08;3.67;;;25.30;84.80;;;;;;5076141;28;20045;-71
2022/01/10 22:19:13;;;;;;;20.58;3.75;;;25.30;84.70;;;;;;5078443;28;20040;-71
2022/01/10 22:21:40;;;;;;;19.92;4.35;;;25.30;84.90;;;;;;5068767;28;20051;-70
2022/01/10 22:24:08;;;;;;;14.10;3.45;;;25.40;84.70;;;;;;5074355;28;20123;-69
2022/01/10 22:26:35;;;;;;;15.80;3.60;;;25.30;84.20;;;;;;5055922;28;20382;-70
2022/01/10 23:30:08;;;;;;;14.50;3.22;;;26.20;81.70;;;;;;5085670;28;20051;-68
2022/01/10 23:32:35;;;;;;;24.38;4.35;;;26.30;80.80;;;;;;5066660;28;20087;-68
2022/01/10 23:35:03;;;;;;;31.70;4.28;;;26.50;80.10;;;;;;5071224;28;20047;-69
2022/01/10 23:37:30;;;;;;;110.38;16.05;;;26.60;79.70;;;;;;5071579;28;20036;-68
2022/01/10 23:39:57;;;;;;;49.15;9.50;;;26.70;79.90;;;;;;5070613;28;20031;-67
2022/01/10 23:42:24;;;;;;;18.70;4.35;;;26.70;80.40;;;;;;5056039;28;20044;-68
2022/01/10 23:44:52;;;;;;;17.02;3.75;;;26.80;78.40;;;;;;5070215;28;20124;-68
2022/01/10 23:47:19;;;;;;;22.80;4.28;;;26.80;78.50;;;;;;5069882;28;20064;-68
2022/01/10 23:49:48;;;;;;;17.20;3.72;;;26.80;78.60;;;;;;5069719;28;20028;-69
2022/01/10 23:52:25;;;;;;;16.65;3.88;;;26.70;78.40;;;;;;5069014;28;20033;-68
2022/01/10 23:54:52;;;;;;;21.40;3.47;;;26.60;79.00;;;;;;5060754;28;20044;-69
2022/01/10 23:57:20;;;;;;;23.80;4.00;;;26.50;78.70;;;;;;5079608;28;20040;-68